createdAt,value
2023-05-18T00:00:56.496Z,3.20
2023-05-18T00:05:50.091Z,3.42
2023-05-18T00:10:44.528Z,3.78
2023-05-18T00:15:39.443Z,3.53
2023-05-18T00:20:33.209Z,3.55
2023-05-18T00:25:26.143Z,2.88
2023-05-18T00:30:20.789Z,3.05
2023-05-18T00:35:13.625Z,3.30
2023-05-18T00:40:09.901Z,3.50
2023-05-18T00:45:03.482Z,3.13
2023-05-18T00:49:56.175Z,3.50
2023-05-18T00:54:54.418Z,3.08
2023-05-18T00:59:48.148Z,3.43
2023-05-18T01:04:41.984Z,4.13
2023-05-18T01:09:35.292Z,3.25
2023-05-18T01:14:46.000Z,2.97
2023-05-18T01:19:47.968Z,3.55
2023-05-18T01:24:45.710Z,3.60
2023-05-18T01:29:39.573Z,2.80
2023-05-18T01:34:33.038Z,3.00
2023-05-18T01:39:26.626Z,2.95
2023-05-18T01:44:28.128Z,3.00
2023-05-18T01:49:28.876Z,3.47
2023-05-18T01:54:22.892Z,3.00
2023-05-18T01:59:16.808Z,3.17
2023-05-18T02:04:11.007Z,3.03
2023-05-18T02:09:23.719Z,3.10
2023-05-18T02:14:17.205Z,2.70
2023-05-18T02:19:12.516Z,3.13
2023-05-18T02:24:13.236Z,3.00
2023-05-18T02:29:07.080Z,3.22
2023-05-18T02:34:00.209Z,3.25
2023-05-18T02:38:53.502Z,3.42
2023-05-18T02:43:47.064Z,3.20
2023-05-18T02:48:40.632Z,3.20
2023-05-18T02:53:33.453Z,2.40
2023-05-18T02:58:34.068Z,2.90
2023-05-18T03:03:36.972Z,3.05
2023-05-18T03:08:32.136Z,3.83
2023-05-18T03:13:25.970Z,3.05
2023-05-18T03:18:21.518Z,4.63
2023-05-18T03:23:15.194Z,3.92
2023-05-18T03:28:09.626Z,4.20
2023-05-18T03:33:03.753Z,3.45
2023-05-18T03:37:57.284Z,3.10
2023-05-18T03:42:51.013Z,3.83
2023-05-18T03:47:44.371Z,3.30
2023-05-18T03:52:37.077Z,3.60
2023-05-18T03:57:33.766Z,3.22
2023-05-18T04:02:27.926Z,5.38
2023-05-18T04:07:22.841Z,3.50
2023-05-18T04:12:17.092Z,4.60
2023-05-18T04:17:10.639Z,3.35
2023-05-18T04:22:06.650Z,3.55
2023-05-18T04:27:01.446Z,3.08
2023-05-18T04:32:18.126Z,3.95
2023-05-18T04:37:11.199Z,4.03
2023-05-18T04:42:04.959Z,4.32
2023-05-18T04:46:57.896Z,3.50
2023-05-18T04:51:56.371Z,3.45
2023-05-18T04:56:49.588Z,3.95
2023-05-18T05:01:44.286Z,3.97
2023-05-18T05:06:38.222Z,4.30
2023-05-18T05:11:31.438Z,4.15
2023-05-18T05:16:24.100Z,4.25
2023-05-18T05:21:17.194Z,4.32
2023-05-18T05:26:11.509Z,4.63
2023-05-18T05:31:05.835Z,4.63
2023-05-18T05:35:59.654Z,4.53
2023-05-18T05:40:52.813Z,4.65
2023-05-18T05:45:46.465Z,4.47
2023-05-18T05:50:39.749Z,4.63
2023-05-18T05:55:33.444Z,4.35
2023-05-18T06:00:29.343Z,5.10
2023-05-18T06:05:27.171Z,5.18
2023-05-18T06:10:23.280Z,6.20
2023-05-18T06:15:16.775Z,4.80
2023-05-18T06:20:14.189Z,4.90
2023-05-18T06:25:08.540Z,4.32
2023-05-18T06:30:15.633Z,6.50
2023-05-18T06:35:25.538Z,4.72
2023-05-18T06:40:18.223Z,5.20
2023-05-18T06:45:17.102Z,4.38
2023-05-18T06:50:15.373Z,4.60
2023-05-18T06:55:09.176Z,4.15
2023-05-18T07:00:02.407Z,4.10
2023-05-18T07:04:56.640Z,3.85
2023-05-18T07:09:50.374Z,3.83
2023-05-18T07:14:45.001Z,3.63
2023-05-18T07:19:38.752Z,4.68
2023-05-18T07:24:32.290Z,4.28
2023-05-18T07:29:26.001Z,5.03
2023-05-18T07:34:19.942Z,4.80
2023-05-18T07:39:20.189Z,5.50
2023-05-18T07:44:14.508Z,5.50
2023-05-18T07:49:07.405Z,5.65
2023-05-18T07:54:00.240Z,6.03
2023-05-18T07:58:54.194Z,6.30
2023-05-18T08:03:47.235Z,6.80
2023-05-18T08:08:41.141Z,7.40
2023-05-18T08:13:34.985Z,6.53
2023-05-18T08:18:28.049Z,7.38
2023-05-18T08:23:22.072Z,4.43
2023-05-18T08:28:15.687Z,3.65
2023-05-18T08:33:09.974Z,3.72
2023-05-18T08:38:05.514Z,4.93
2023-05-18T08:42:58.474Z,3.90
2023-05-18T08:47:52.108Z,3.50
2023-05-18T08:52:49.203Z,3.72
2023-05-18T08:57:44.965Z,3.58
2023-05-18T09:02:40.327Z,3.28
2023-05-18T09:07:32.952Z,3.00
2023-05-18T09:12:28.235Z,2.45
2023-05-18T09:17:23.443Z,2.85
2023-05-18T09:22:17.183Z,2.03
2023-05-18T09:27:11.539Z,1.83
2023-05-18T09:32:05.416Z,1.30
2023-05-18T09:36:58.251Z,1.25
2023-05-18T09:41:57.695Z,1.70
2023-05-18T09:46:56.213Z,2.03
2023-05-18T09:56:42.135Z,1.52
2023-05-18T10:01:35.821Z,1.38
2023-05-18T10:06:29.954Z,1.13
2023-05-18T10:11:23.439Z,0.90
2023-05-18T10:16:17.779Z,1.08
2023-05-18T10:21:13.109Z,1.02
2023-05-18T10:26:15.574Z,1.38
2023-05-18T10:31:09.762Z,0.90
2023-05-18T10:36:04.746Z,1.05
2023-05-18T10:41:02.384Z,1.40
2023-05-18T10:46:01.523Z,0.80
2023-05-18T10:50:56.997Z,0.88
2023-05-18T10:55:52.416Z,0.90
2023-05-18T11:01:06.806Z,0.93
2023-05-18T11:06:08.773Z,1.20
2023-05-18T11:11:22.804Z,0.98
2023-05-18T11:16:17.594Z,1.30
2023-05-18T11:21:32.857Z,1.10
2023-05-18T11:26:29.979Z,1.20
2023-05-18T11:31:23.533Z,1.45
2023-05-18T11:36:26.622Z,1.13
2023-05-18T11:41:32.705Z,1.50
2023-05-18T11:46:27.691Z,1.00
2023-05-18T11:51:25.158Z,1.00
2023-05-18T11:56:18.323Z,0.90
2023-05-18T12:01:13.112Z,1.10
2023-05-18T12:06:09.030Z,1.35
2023-05-18T12:11:03.037Z,0.73
2023-05-18T12:15:59.251Z,1.00
2023-05-18T12:20:55.909Z,0.88
2023-05-18T12:25:51.306Z,1.13
2023-05-18T12:30:44.624Z,1.65
2023-05-18T12:35:38.529Z,1.27
2023-05-18T12:40:49.236Z,1.13
2023-05-18T12:45:45.419Z,1.17
2023-05-18T12:50:48.563Z,1.00
2023-05-18T12:55:42.412Z,0.90
2023-05-18T13:00:37.927Z,1.05
2023-05-18T13:05:32.125Z,0.70
2023-05-18T13:10:25.560Z,0.90
2023-05-18T13:15:19.685Z,0.80
2023-05-18T13:20:15.997Z,1.02
2023-05-18T13:25:09.856Z,0.90
2023-05-18T13:30:03.823Z,0.88
2023-05-18T13:34:56.637Z,0.90
2023-05-18T13:39:50.679Z,0.60
2023-05-18T13:44:44.257Z,0.85
2023-05-18T13:49:39.324Z,0.80
2023-05-18T13:54:32.709Z,0.70
2023-05-18T13:59:28.200Z,1.55
2023-05-18T14:04:21.662Z,1.50
2023-05-18T14:09:15.349Z,0.73
2023-05-18T14:14:09.145Z,1.13
2023-05-18T14:19:02.821Z,0.70
2023-05-18T14:23:56.896Z,0.77
2023-05-18T14:28:50.987Z,1.08
2023-05-18T14:33:44.529Z,0.90
2023-05-18T14:38:38.384Z,0.85
2023-05-18T14:43:32.492Z,1.23
2023-05-18T14:48:26.217Z,1.13
2023-05-18T14:53:20.341Z,2.00
2023-05-18T14:58:15.765Z,1.42
2023-05-18T15:03:09.723Z,1.02
2023-05-18T15:08:03.671Z,1.15
2023-05-18T15:12:57.593Z,1.02
2023-05-18T15:17:51.762Z,1.10
2023-05-18T15:22:44.686Z,1.17
2023-05-18T15:27:38.563Z,1.08
2023-05-18T15:32:31.908Z,0.82
2023-05-18T15:37:24.777Z,0.98
2023-05-18T15:42:18.641Z,1.05
2023-05-18T15:47:11.692Z,1.30
2023-05-18T15:52:06.073Z,1.27
2023-05-18T15:56:58.826Z,1.17
2023-05-18T16:01:52.431Z,1.63
2023-05-18T16:06:46.082Z,1.20
2023-05-18T16:11:39.106Z,1.30
2023-05-18T16:16:32.957Z,1.55
2023-05-18T16:21:26.002Z,1.17
2023-05-18T16:26:19.623Z,1.30
2023-05-18T16:31:12.712Z,1.40
2023-05-18T16:36:06.269Z,1.17
2023-05-18T16:41:00.840Z,1.30
2023-05-18T16:45:54.183Z,1.40
2023-05-18T16:50:48.705Z,1.35
2023-05-18T16:55:41.974Z,2.95
2023-05-18T17:00:36.479Z,1.45
2023-05-18T17:05:30.504Z,1.48
2023-05-18T17:10:23.856Z,2.78
2023-05-18T17:15:18.277Z,17.23
2023-05-18T17:20:12.712Z,4.05
2023-05-18T17:25:07.091Z,2.63
2023-05-18T17:30:01.171Z,3.67
2023-05-18T17:34:54.144Z,2.92
2023-05-18T17:39:49.101Z,2.80
2023-05-18T17:44:42.103Z,2.50
2023-05-18T17:49:36.355Z,2.22
2023-05-18T17:54:30.851Z,2.00
2023-05-18T17:59:24.481Z,2.13
2023-05-18T18:04:17.748Z,3.05
2023-05-18T18:09:10.668Z,2.00
2023-05-18T18:14:05.634Z,1.90
2023-05-18T18:18:59.498Z,1.95
2023-05-18T18:23:53.315Z,2.00
2023-05-18T18:28:47.659Z,3.05
2023-05-18T18:33:44.378Z,1.70
2023-05-18T18:38:38.038Z,2.25
2023-05-18T18:43:31.670Z,1.88
2023-05-18T18:48:25.141Z,2.22
2023-05-18T18:53:18.307Z,3.60
2023-05-18T18:58:12.645Z,3.28
2023-05-18T19:03:06.522Z,3.38
2023-05-18T19:08:00.025Z,2.50
2023-05-18T19:12:53.710Z,3.20
2023-05-18T19:17:47.626Z,2.88
2023-05-18T19:22:41.035Z,2.97
2023-05-18T19:27:33.880Z,3.20
2023-05-18T19:32:28.473Z,2.58
2023-05-18T19:37:21.969Z,3.20
2023-05-18T19:42:15.195Z,3.38
2023-05-18T19:47:08.520Z,3.50
2023-05-18T19:52:02.416Z,3.28
2023-05-18T19:56:56.606Z,3.88
2023-05-18T20:01:51.643Z,3.85
2023-05-18T20:06:45.677Z,3.80
2023-05-18T20:11:39.114Z,7.13
2023-05-18T20:16:35.897Z,6.45
2023-05-18T20:21:30.184Z,6.72
2023-05-18T20:26:24.332Z,7.00
2023-05-18T20:31:18.393Z,7.78
2023-05-18T20:36:14.105Z,7.32
2023-05-18T20:41:10.738Z,5.93
2023-05-18T20:46:06.362Z,5.05
2023-05-18T20:51:00.130Z,6.80
2023-05-18T20:55:54.715Z,7.03
2023-05-18T21:00:48.519Z,6.05
2023-05-18T21:05:43.328Z,7.30
2023-05-18T21:10:36.837Z,6.60
2023-05-18T21:15:30.555Z,4.10
2023-05-18T21:20:23.474Z,3.78
2023-05-18T21:25:18.549Z,3.97
2023-05-18T21:30:13.417Z,3.70
2023-05-18T21:35:07.476Z,3.88
2023-05-18T21:40:01.531Z,4.22
2023-05-18T21:44:55.429Z,4.18
2023-05-18T21:49:49.302Z,4.20
2023-05-18T21:54:42.789Z,3.88
2023-05-18T21:59:36.462Z,4.20
2023-05-18T22:04:29.689Z,4.32
2023-05-18T22:09:23.841Z,5.50
2023-05-18T22:14:18.285Z,4.35
2023-05-18T22:19:12.418Z,4.75
2023-05-18T22:24:06.679Z,4.25
2023-05-18T22:28:59.900Z,4.07
2023-05-18T22:33:54.141Z,3.72
2023-05-18T22:38:49.821Z,3.60
2023-05-18T22:43:43.906Z,3.70
2023-05-18T22:48:38.544Z,4.20
2023-05-18T22:53:31.994Z,4.07
2023-05-18T22:58:25.308Z,4.05
2023-05-18T23:03:19.500Z,3.70
2023-05-18T23:08:14.084Z,4.38
2023-05-18T23:13:08.222Z,3.92
2023-05-18T23:18:02.621Z,3.90
2023-05-18T23:22:56.414Z,4.85
2023-05-18T23:27:50.082Z,4.93
2023-05-18T23:32:46.309Z,4.40
2023-05-18T23:37:42.539Z,4.70
2023-05-18T23:42:37.172Z,4.55
2023-05-18T23:47:30.613Z,5.47
2023-05-18T23:52:27.081Z,5.63
2023-05-18T23:57:21.501Z,4.93
